sensor_id;sensor_type;location;lat;lon;timestamp;P1;durP1;ratioP1;P2;durP2;ratioP2
40623;SDS011;26325;48.594;11.650;2023-11-21T00:00:14;2.55;;;2.00;;
40623;SDS011;26325;48.594;11.650;2023-11-21T00:02:41;4.78;;;2.10;;
40623;SDS011;26325;48.594;11.650;2023-11-21T00:05:10;3.67;;;2.10;;
40623;SDS011;26325;48.594;11.650;2023-11-21T00:07:39;4.45;;;2.00;;
40623;SDS011;26325;48.594;11.650;2023-11-21T00:10:06;2.88;;;2.22;;
40623;SDS011;26325;48.594;11.650;2023-11-21T00:12:34;4.30;;;2.10;;
40623;SDS011;26325;48.594;11.650;2023-11-21T00:15:00;4.35;;;1.88;;
40623;SDS011;26325;48.594;11.650;2023-11-21T00:17:27;5.00;;;1.83;;
40623;SDS011;26325;48.594;11.650;2023-11-21T00:19:52;4.72;;;1.90;;
40623;SDS011;26325;48.594;11.650;2023-11-21T00:22:18;3.05;;;1.73;;
40623;SDS011;26325;48.594;11.650;2023-11-21T00:24:45;5.40;;;1.83;;
40623;SDS011;26325;48.594;11.650;2023-11-21T00:27:13;4.85;;;2.00;;
40623;SDS011;26325;48.594;11.650;2023-11-21T00:29:40;4.53;;;1.77;;
40623;SDS011;26325;48.594;11.650;2023-11-21T00:34:32;3.93;;;1.67;;
40623;SDS011;26325;48.594;11.650;2023-11-21T00:36:58;2.25;;;1.40;;
40623;SDS011;26325;48.594;11.650;2023-11-21T00:39:24;4.85;;;1.60;;
40623;SDS011;26325;48.594;11.650;2023-11-21T00:41:51;2.85;;;1.88;;
40623;SDS011;26325;48.594;11.650;2023-11-21T00:44:17;3.08;;;1.85;;
40623;SDS011;26325;48.594;11.650;2023-11-21T00:46:42;2.53;;;1.40;;
40623;SDS011;26325;48.594;11.650;2023-11-21T00:49:08;3.33;;;1.83;;
40623;SDS011;26325;48.594;11.650;2023-11-21T00:53:59;2.55;;;1.75;;
40623;SDS011;26325;48.594;11.650;2023-11-21T00:56:26;4.47;;;2.03;;
40623;SDS011;26325;48.594;11.650;2023-11-21T00:58:52;3.35;;;1.55;;
40623;SDS011;26325;48.594;11.650;2023-11-21T01:01:21;3.30;;;1.50;;
40623;SDS011;26325;48.594;11.650;2023-11-21T01:03:49;3.53;;;1.60;;
40623;SDS011;26325;48.594;11.650;2023-11-21T01:06:16;3.10;;;1.65;;
40623;SDS011;26325;48.594;11.650;2023-11-21T01:08:41;3.40;;;1.40;;
40623;SDS011;26325;48.594;11.650;2023-11-21T01:11:08;3.22;;;1.50;;
40623;SDS011;26325;48.594;11.650;2023-11-21T01:13:35;2.03;;;1.40;;
40623;SDS011;26325;48.594;11.650;2023-11-21T01:16:05;2.67;;;1.40;;
40623;SDS011;26325;48.594;11.650;2023-11-21T01:18:35;5.53;;;1.63;;
40623;SDS011;26325;48.594;11.650;2023-11-21T01:21:01;2.90;;;1.52;;
40623;SDS011;26325;48.594;11.650;2023-11-21T01:23:27;5.47;;;1.60;;
40623;SDS011;26325;48.594;11.650;2023-11-21T01:25:56;2.65;;;1.42;;
40623;SDS011;26325;48.594;11.650;2023-11-21T01:28:22;2.42;;;1.52;;
40623;SDS011;26325;48.594;11.650;2023-11-21T01:30:48;3.92;;;1.30;;
40623;SDS011;26325;48.594;11.650;2023-11-21T01:33:14;5.50;;;1.63;;
40623;SDS011;26325;48.594;11.650;2023-11-21T01:35:41;2.72;;;1.42;;
40623;SDS011;26325;48.594;11.650;2023-11-21T01:38:09;1.92;;;1.30;;
40623;SDS011;26325;48.594;11.650;2023-11-21T01:40:35;3.42;;;1.33;;
40623;SDS011;26325;48.594;11.650;2023-11-21T01:43:01;1.98;;;1.30;;
40623;SDS011;26325;48.594;11.650;2023-11-21T01:45:31;1.80;;;1.40;;
40623;SDS011;26325;48.594;11.650;2023-11-21T01:47:59;2.95;;;1.50;;
40623;SDS011;26325;48.594;11.650;2023-11-21T01:50:26;3.63;;;1.40;;
40623;SDS011;26325;48.594;11.650;2023-11-21T01:52:52;3.15;;;1.63;;
40623;SDS011;26325;48.594;11.650;2023-11-21T01:55:18;4.47;;;1.92;;
40623;SDS011;26325;48.594;11.650;2023-11-21T01:57:44;2.90;;;1.40;;
40623;SDS011;26325;48.594;11.650;2023-11-21T02:00:12;3.55;;;1.27;;
40623;SDS011;26325;48.594;11.650;2023-11-21T02:02:43;3.13;;;1.33;;
40623;SDS011;26325;48.594;11.650;2023-11-21T02:05:13;3.22;;;1.50;;
40623;SDS011;26325;48.594;11.650;2023-11-21T02:07:41;2.47;;;1.42;;
40623;SDS011;26325;48.594;11.650;2023-11-21T02:10:08;2.55;;;1.42;;
40623;SDS011;26325;48.594;11.650;2023-11-21T02:12:34;4.90;;;1.65;;
40623;SDS011;26325;48.594;11.650;2023-11-21T02:15:04;2.80;;;1.60;;
40623;SDS011;26325;48.594;11.650;2023-11-21T02:17:37;4.53;;;1.60;;
40623;SDS011;26325;48.594;11.650;2023-11-21T02:20:02;2.80;;;1.42;;
40623;SDS011;26325;48.594;11.650;2023-11-21T02:22:32;1.70;;;1.30;;
40623;SDS011;26325;48.594;11.650;2023-11-21T02:25:03;2.53;;;1.75;;
40623;SDS011;26325;48.594;11.650;2023-11-21T02:27:29;2.45;;;1.30;;
40623;SDS011;26325;48.594;11.650;2023-11-21T02:29:56;2.10;;;1.30;;
40623;SDS011;26325;48.594;11.650;2023-11-21T02:32:22;2.22;;;1.33;;
40623;SDS011;26325;48.594;11.650;2023-11-21T02:34:53;2.15;;;1.10;;
40623;SDS011;26325;48.594;11.650;2023-11-21T02:37:28;2.40;;;1.20;;
40623;SDS011;26325;48.594;11.650;2023-11-21T02:39:54;2.05;;;1.27;;
40623;SDS011;26325;48.594;11.650;2023-11-21T02:42:19;2.72;;;1.33;;
40623;SDS011;26325;48.594;11.650;2023-11-21T02:44:45;1.92;;;1.25;;
40623;SDS011;26325;48.594;11.650;2023-11-21T02:47:10;1.88;;;1.40;;
40623;SDS011;26325;48.594;11.650;2023-11-21T02:49:36;4.18;;;1.42;;
40623;SDS011;26325;48.594;11.650;2023-11-21T02:52:01;2.03;;;1.25;;
40623;SDS011;26325;48.594;11.650;2023-11-21T02:54:27;2.88;;;1.30;;
40623;SDS011;26325;48.594;11.650;2023-11-21T02:56:55;4.07;;;2.95;;
40623;SDS011;26325;48.594;11.650;2023-11-21T02:59:23;3.35;;;2.00;;
40623;SDS011;26325;48.594;11.650;2023-11-21T03:01:48;2.88;;;1.60;;
40623;SDS011;26325;48.594;11.650;2023-11-21T03:04:14;3.20;;;1.40;;
40623;SDS011;26325;48.594;11.650;2023-11-21T03:06:43;3.13;;;1.55;;
40623;SDS011;26325;48.594;11.650;2023-11-21T03:09:10;2.70;;;1.60;;
40623;SDS011;26325;48.594;11.650;2023-11-21T03:11:37;2.60;;;1.30;;
40623;SDS011;26325;48.594;11.650;2023-11-21T03:14:03;3.13;;;1.80;;
40623;SDS011;26325;48.594;11.650;2023-11-21T03:16:31;3.90;;;1.70;;
40623;SDS011;26325;48.594;11.650;2023-11-21T03:18:57;2.17;;;1.25;;
40623;SDS011;26325;48.594;11.650;2023-11-21T03:21:24;2.83;;;1.42;;
40623;SDS011;26325;48.594;11.650;2023-11-21T03:23:51;3.58;;;1.30;;
40623;SDS011;26325;48.594;11.650;2023-11-21T03:26:18;1.92;;;1.30;;
40623;SDS011;26325;48.594;11.650;2023-11-21T03:28:43;2.40;;;1.13;;
40623;SDS011;26325;48.594;11.650;2023-11-21T03:33:38;4.80;;;1.50;;
40623;SDS011;26325;48.594;11.650;2023-11-21T03:36:04;4.60;;;2.08;;
40623;SDS011;26325;48.594;11.650;2023-11-21T03:38:32;1.75;;;1.10;;
40623;SDS011;26325;48.594;11.650;2023-11-21T03:41:00;3.05;;;1.35;;
40623;SDS011;26325;48.594;11.650;2023-11-21T03:43:25;2.50;;;1.40;;
40623;SDS011;26325;48.594;11.650;2023-11-21T03:48:16;3.45;;;1.60;;
40623;SDS011;26325;48.594;11.650;2023-11-21T03:50:42;2.47;;;1.70;;
40623;SDS011;26325;48.594;11.650;2023-11-21T03:53:07;2.83;;;2.05;;
40623;SDS011;26325;48.594;11.650;2023-11-21T03:55:33;3.10;;;2.72;;
40623;SDS011;26325;48.594;11.650;2023-11-21T03:57:58;3.22;;;2.42;;
40623;SDS011;26325;48.594;11.650;2023-11-21T04:00:27;3.00;;;2.10;;
40623;SDS011;26325;48.594;11.650;2023-11-21T04:02:53;2.53;;;1.75;;
40623;SDS011;26325;48.594;11.650;2023-11-21T04:05:20;3.45;;;1.77;;
40623;SDS011;26325;48.594;11.650;2023-11-21T04:07:50;3.85;;;1.60;;
40623;SDS011;26325;48.594;11.650;2023-11-21T04:10:16;1.75;;;1.10;;
40623;SDS011;26325;48.594;11.650;2023-11-21T04:12:42;1.88;;;1.10;;
40623;SDS011;26325;48.594;11.650;2023-11-21T04:15:08;3.00;;;2.20;;
40623;SDS011;26325;48.594;11.650;2023-11-21T04:17:35;3.47;;;2.92;;
40623;SDS011;26325;48.594;11.650;2023-11-21T04:20:03;5.50;;;2.70;;
40623;SDS011;26325;48.594;11.650;2023-11-21T04:22:36;2.08;;;1.40;;
40623;SDS011;26325;48.594;11.650;2023-11-21T04:25:15;2.78;;;1.40;;
40623;SDS011;26325;48.594;11.650;2023-11-21T04:27:41;3.30;;;1.50;;
40623;SDS011;26325;48.594;11.650;2023-11-21T04:30:10;3.13;;;1.92;;
40623;SDS011;26325;48.594;11.650;2023-11-21T04:32:35;2.20;;;1.60;;
40623;SDS011;26325;48.594;11.650;2023-11-21T04:35:01;2.00;;;1.25;;
40623;SDS011;26325;48.594;11.650;2023-11-21T04:37:29;1.92;;;0.95;;
40623;SDS011;26325;48.594;11.650;2023-11-21T04:39:54;1.70;;;1.05;;
40623;SDS011;26325;48.594;11.650;2023-11-21T04:44:45;1.10;;;0.82;;
40623;SDS011;26325;48.594;11.650;2023-11-21T04:47:11;1.85;;;1.10;;
40623;SDS011;26325;48.594;11.650;2023-11-21T04:49:37;1.83;;;1.30;;
40623;SDS011;26325;48.594;11.650;2023-11-21T04:52:03;2.05;;;1.45;;
40623;SDS011;26325;48.594;11.650;2023-11-21T04:54:30;1.50;;;1.10;;
40623;SDS011;26325;48.594;11.650;2023-11-21T04:56:56;1.25;;;1.00;;
40623;SDS011;26325;48.594;11.650;2023-11-21T04:59:22;1.58;;;0.90;;
40623;SDS011;26325;48.594;11.650;2023-11-21T05:01:50;1.08;;;1.00;;
40623;SDS011;26325;48.594;11.650;2023-11-21T05:04:16;1.88;;;1.00;;
40623;SDS011;26325;48.594;11.650;2023-11-21T05:06:41;2.95;;;1.10;;
40623;SDS011;26325;48.594;11.650;2023-11-21T05:11:39;1.75;;;1.08;;
40623;SDS011;26325;48.594;11.650;2023-11-21T05:14:06;3.03;;;1.10;;
40623;SDS011;26325;48.594;11.650;2023-11-21T05:16:32;2.88;;;2.67;;
40623;SDS011;26325;48.594;11.650;2023-11-21T05:18:57;3.58;;;2.30;;
40623;SDS011;26325;48.594;11.650;2023-11-21T05:21:29;2.53;;;1.73;;
40623;SDS011;26325;48.594;11.650;2023-11-21T05:23:58;2.42;;;1.90;;
40623;SDS011;26325;48.594;11.650;2023-11-21T05:26:24;2.55;;;2.25;;
40623;SDS011;26325;48.594;11.650;2023-11-21T05:28:49;2.53;;;2.33;;
40623;SDS011;26325;48.594;11.650;2023-11-21T05:31:15;2.10;;;2.00;;
40623;SDS011;26325;48.594;11.650;2023-11-21T05:33:41;2.22;;;2.13;;
40623;SDS011;26325;48.594;11.650;2023-11-21T05:36:07;2.58;;;2.38;;
40623;SDS011;26325;48.594;11.650;2023-11-21T05:38:36;2.63;;;2.25;;
40623;SDS011;26325;48.594;11.650;2023-11-21T05:41:02;2.45;;;2.20;;
40623;SDS011;26325;48.594;11.650;2023-11-21T05:43:29;2.80;;;1.90;;
40623;SDS011;26325;48.594;11.650;2023-11-21T05:45:56;3.08;;;2.40;;
40623;SDS011;26325;48.594;11.650;2023-11-21T05:48:21;2.65;;;1.08;;
40623;SDS011;26325;48.594;11.650;2023-11-21T05:50:47;1.25;;;1.10;;
40623;SDS011;26325;48.594;11.650;2023-11-21T05:53:15;2.70;;;1.35;;
40623;SDS011;26325;48.594;11.650;2023-11-21T05:55:41;1.63;;;1.17;;
40623;SDS011;26325;48.594;11.650;2023-11-21T05:58:07;1.45;;;1.20;;
40623;SDS011;26325;48.594;11.650;2023-11-21T06:00:34;1.50;;;1.20;;
40623;SDS011;26325;48.594;11.650;2023-11-21T06:03:00;0.93;;;0.93;;
40623;SDS011;26325;48.594;11.650;2023-11-21T06:05:26;1.30;;;0.90;;
40623;SDS011;26325;48.594;11.650;2023-11-21T06:07:53;1.17;;;0.98;;
40623;SDS011;26325;48.594;11.650;2023-11-21T06:10:20;1.30;;;1.00;;
40623;SDS011;26325;48.594;11.650;2023-11-21T06:12:48;1.55;;;1.45;;
40623;SDS011;26325;48.594;11.650;2023-11-21T06:15:14;1.60;;;1.00;;
40623;SDS011;26325;48.594;11.650;2023-11-21T06:17:41;2.45;;;1.55;;
40623;SDS011;26325;48.594;11.650;2023-11-21T06:20:08;2.05;;;1.38;;
40623;SDS011;26325;48.594;11.650;2023-11-21T06:22:44;0.85;;;0.85;;
40623;SDS011;26325;48.594;11.650;2023-11-21T06:25:13;1.20;;;1.10;;
40623;SDS011;26325;48.594;11.650;2023-11-21T06:27:41;1.90;;;1.20;;
40623;SDS011;26325;48.594;11.650;2023-11-21T06:30:08;1.80;;;1.10;;
40623;SDS011;26325;48.594;11.650;2023-11-21T06:32:37;1.50;;;1.05;;
40623;SDS011;26325;48.594;11.650;2023-11-21T06:35:08;1.27;;;1.17;;
40623;SDS011;26325;48.594;11.650;2023-11-21T06:37:35;1.23;;;1.13;;
40623;SDS011;26325;48.594;11.650;2023-11-21T06:40:01;1.27;;;1.17;;
40623;SDS011;26325;48.594;11.650;2023-11-21T06:42:29;1.77;;;1.40;;
40623;SDS011;26325;48.594;11.650;2023-11-21T06:44:54;2.92;;;1.65;;
40623;SDS011;26325;48.594;11.650;2023-11-21T06:47:22;2.72;;;1.80;;
40623;SDS011;26325;48.594;11.650;2023-11-21T06:49:53;2.72;;;1.60;;
40623;SDS011;26325;48.594;11.650;2023-11-21T06:52:19;2.70;;;1.75;;
40623;SDS011;26325;48.594;11.650;2023-11-21T06:54:45;2.13;;;1.38;;
40623;SDS011;26325;48.594;11.650;2023-11-21T06:57:12;2.53;;;1.35;;
40623;SDS011;26325;48.594;11.650;2023-11-21T06:59:38;1.45;;;1.35;;
40623;SDS011;26325;48.594;11.650;2023-11-21T07:02:04;1.85;;;1.45;;
40623;SDS011;26325;48.594;11.650;2023-11-21T07:04:35;3.35;;;1.40;;
40623;SDS011;26325;48.594;11.650;2023-11-21T07:07:02;1.42;;;1.00;;
40623;SDS011;26325;48.594;11.650;2023-11-21T07:09:29;1.83;;;1.10;;
40623;SDS011;26325;48.594;11.650;2023-11-21T07:11:55;1.88;;;1.02;;
40623;SDS011;26325;48.594;11.650;2023-11-21T07:14:23;2.70;;;1.00;;
40623;SDS011;26325;48.594;11.650;2023-11-21T07:16:48;2.40;;;1.30;;
40623;SDS011;26325;48.594;11.650;2023-11-21T07:19:14;2.25;;;1.20;;
40623;SDS011;26325;48.594;11.650;2023-11-21T07:24:06;1.92;;;1.20;;
40623;SDS011;26325;48.594;11.650;2023-11-21T07:26:33;3.17;;;1.45;;
40623;SDS011;26325;48.594;11.650;2023-11-21T07:29:00;1.75;;;1.27;;
40623;SDS011;26325;48.594;11.650;2023-11-21T07:31:26;1.30;;;1.20;;
40623;SDS011;26325;48.594;11.650;2023-11-21T07:33:52;1.30;;;1.15;;
40623;SDS011;26325;48.594;11.650;2023-11-21T07:38:45;1.67;;;1.20;;
40623;SDS011;26325;48.594;11.650;2023-11-21T07:41:11;1.98;;;1.20;;
40623;SDS011;26325;48.594;11.650;2023-11-21T07:43:41;1.75;;;1.42;;
40623;SDS011;26325;48.594;11.650;2023-11-21T07:46:07;2.13;;;1.58;;
40623;SDS011;26325;48.594;11.650;2023-11-21T07:48:33;2.70;;;2.28;;
40623;SDS011;26325;48.594;11.650;2023-11-21T07:51:02;2.10;;;1.65;;
40623;SDS011;26325;48.594;11.650;2023-11-21T07:53:30;1.95;;;1.52;;
40623;SDS011;26325;48.594;11.650;2023-11-21T07:55:56;2.53;;;1.48;;
40623;SDS011;26325;48.594;11.650;2023-11-21T07:58:23;1.83;;;1.30;;
40623;SDS011;26325;48.594;11.650;2023-11-21T08:00:49;1.73;;;1.40;;
40623;SDS011;26325;48.594;11.650;2023-11-21T08:03:15;2.53;;;1.70;;
40623;SDS011;26325;48.594;11.650;2023-11-21T08:05:42;2.72;;;1.27;;
40623;SDS011;26325;48.594;11.650;2023-11-21T08:08:08;1.35;;;1.25;;
40623;SDS011;26325;48.594;11.650;2023-11-21T08:10:34;2.42;;;1.25;;
40623;SDS011;26325;48.594;11.650;2023-11-21T08:13:01;1.60;;;1.30;;
40623;SDS011;26325;48.594;11.650;2023-11-21T08:15:27;1.33;;;1.23;;
40623;SDS011;26325;48.594;11.650;2023-11-21T08:17:53;1.27;;;1.17;;
40623;SDS011;26325;48.594;11.650;2023-11-21T08:20:18;2.70;;;1.23;;
40623;SDS011;26325;48.594;11.650;2023-11-21T08:25:10;3.03;;;1.50;;
40623;SDS011;26325;48.594;11.650;2023-11-21T08:30:05;2.83;;;1.52;;
40623;SDS011;26325;48.594;11.650;2023-11-21T08:32:32;3.25;;;1.45;;
40623;SDS011;26325;48.594;11.650;2023-11-21T08:34:58;2.35;;;1.10;;
40623;SDS011;26325;48.594;11.650;2023-11-21T08:37:25;2.17;;;1.23;;
40623;SDS011;26325;48.594;11.650;2023-11-21T08:39:52;1.92;;;1.30;;
40623;SDS011;26325;48.594;11.650;2023-11-21T08:42:19;2.17;;;1.13;;
40623;SDS011;26325;48.594;11.650;2023-11-21T08:44:48;1.67;;;1.10;;
40623;SDS011;26325;48.594;11.650;2023-11-21T08:47:14;2.10;;;1.40;;
40623;SDS011;26325;48.594;11.650;2023-11-21T08:52:05;1.73;;;1.40;;
40623;SDS011;26325;48.594;11.650;2023-11-21T08:54:32;2.72;;;1.50;;
40623;SDS011;26325;48.594;11.650;2023-11-21T08:56:57;4.95;;;1.80;;
40623;SDS011;26325;48.594;11.650;2023-11-21T08:59:26;3.53;;;1.33;;
40623;SDS011;26325;48.594;11.650;2023-11-21T09:01:51;1.67;;;1.50;;
40623;SDS011;26325;48.594;11.650;2023-11-21T09:06:42;3.20;;;1.33;;
40623;SDS011;26325;48.594;11.650;2023-11-21T09:09:08;2.67;;;1.45;;
40623;SDS011;26325;48.594;11.650;2023-11-21T09:11:36;3.35;;;1.52;;
40623;SDS011;26325;48.594;11.650;2023-11-21T09:14:05;1.63;;;1.27;;
40623;SDS011;26325;48.594;11.650;2023-11-21T09:16:31;3.55;;;1.42;;
40623;SDS011;26325;48.594;11.650;2023-11-21T09:18:57;1.50;;;1.30;;
40623;SDS011;26325;48.594;11.650;2023-11-21T09:21:22;2.45;;;1.40;;
40623;SDS011;26325;48.594;11.650;2023-11-21T09:23:49;2.10;;;1.40;;
40623;SDS011;26325;48.594;11.650;2023-11-21T09:26:17;4.18;;;2.80;;
40623;SDS011;26325;48.594;11.650;2023-11-21T09:28:44;9.68;;;7.03;;
40623;SDS011;26325;48.594;11.650;2023-11-21T09:31:13;2.53;;;2.00;;
40623;SDS011;26325;48.594;11.650;2023-11-21T09:33:41;3.25;;;2.10;;
40623;SDS011;26325;48.594;11.650;2023-11-21T09:36:11;2.90;;;2.60;;
40623;SDS011;26325;48.594;11.650;2023-11-21T09:38:39;5.88;;;4.70;;
40623;SDS011;26325;48.594;11.650;2023-11-21T09:41:05;6.97;;;2.90;;
40623;SDS011;26325;48.594;11.650;2023-11-21T09:43:52;5.05;;;2.60;;
40623;SDS011;26325;48.594;11.650;2023-11-21T09:46:21;2.60;;;2.10;;
40623;SDS011;26325;48.594;11.650;2023-11-21T09:48:50;3.72;;;2.28;;
40623;SDS011;26325;48.594;11.650;2023-11-21T09:51:19;5.65;;;5.15;;
40623;SDS011;26325;48.594;11.650;2023-11-21T09:53:47;5.13;;;4.35;;
40623;SDS011;26325;48.594;11.650;2023-11-21T09:56:19;3.97;;;3.55;;
40623;SDS011;26325;48.594;11.650;2023-11-21T09:58:51;5.63;;;4.15;;
40623;SDS011;26325;48.594;11.650;2023-11-21T10:01:21;5.10;;;4.70;;
40623;SDS011;26325;48.594;11.650;2023-11-21T10:03:52;3.88;;;3.58;;
40623;SDS011;26325;48.594;11.650;2023-11-21T10:06:19;4.15;;;3.30;;
40623;SDS011;26325;48.594;11.650;2023-11-21T10:08:46;4.88;;;4.15;;
40623;SDS011;26325;48.594;11.650;2023-11-21T10:11:13;3.60;;;3.30;;
40623;SDS011;26325;48.594;11.650;2023-11-21T10:13:40;2.95;;;2.45;;
40623;SDS011;26325;48.594;11.650;2023-11-21T10:16:07;5.88;;;4.75;;
40623;SDS011;26325;48.594;11.650;2023-11-21T10:18:39;6.55;;;5.80;;
40623;SDS011;26325;48.594;11.650;2023-11-21T10:21:06;5.57;;;5.07;;
40623;SDS011;26325;48.594;11.650;2023-11-21T10:23:34;6.10;;;5.60;;
40623;SDS011;26325;48.594;11.650;2023-11-21T10:26:00;4.95;;;4.45;;
40623;SDS011;26325;48.594;11.650;2023-11-21T10:28:26;4.22;;;3.80;;
40623;SDS011;26325;48.594;11.650;2023-11-21T10:30:52;4.20;;;3.90;;
40623;SDS011;26325;48.594;11.650;2023-11-21T10:33:17;3.72;;;2.58;;
40623;SDS011;26325;48.594;11.650;2023-11-21T10:35:52;4.53;;;4.13;;
40623;SDS011;26325;48.594;11.650;2023-11-21T10:38:20;3.42;;;2.95;;
40623;SDS011;26325;48.594;11.650;2023-11-21T10:40:48;2.50;;;2.30;;
40623;SDS011;26325;48.594;11.650;2023-11-21T10:43:14;3.17;;;2.50;;
40623;SDS011;26325;48.594;11.650;2023-11-21T10:45:42;3.60;;;2.50;;
40623;SDS011;26325;48.594;11.650;2023-11-21T10:48:09;3.60;;;2.92;;
40623;SDS011;26325;48.594;11.650;2023-11-21T10:50:42;3.17;;;2.85;;
40623;SDS011;26325;48.594;11.650;2023-11-21T10:53:09;3.47;;;2.70;;
40623;SDS011;26325;48.594;11.650;2023-11-21T10:55:34;3.17;;;2.70;;
40623;SDS011;26325;48.594;11.650;2023-11-21T10:58:01;4.00;;;2.88;;
40623;SDS011;26325;48.594;11.650;2023-11-21T11:00:30;3.20;;;2.72;;
40623;SDS011;26325;48.594;11.650;2023-11-21T11:02:57;3.63;;;2.70;;
40623;SDS011;26325;48.594;11.650;2023-11-21T11:05:28;3.35;;;2.83;;
40623;SDS011;26325;48.594;11.650;2023-11-21T11:08:08;4.90;;;2.85;;
40623;SDS011;26325;48.594;11.650;2023-11-21T11:10:39;4.88;;;2.83;;
40623;SDS011;26325;48.594;11.650;2023-11-21T11:13:07;3.28;;;2.97;;
40623;SDS011;26325;48.594;11.650;2023-11-21T11:15:32;2.72;;;2.28;;
40623;SDS011;26325;48.594;11.650;2023-11-21T11:17:58;3.30;;;2.22;;
40623;SDS011;26325;48.594;11.650;2023-11-21T11:20:31;2.47;;;2.15;;
40623;SDS011;26325;48.594;11.650;2023-11-21T11:29:14;2.90;;;2.35;;
40623;SDS011;26325;48.594;11.650;2023-11-21T11:34:46;2.42;;;2.22;;
40623;SDS011;26325;48.594;11.650;2023-11-21T11:37:15;2.38;;;2.10;;
40623;SDS011;26325;48.594;11.650;2023-11-21T11:39:42;3.47;;;2.53;;
40623;SDS011;26325;48.594;11.650;2023-11-21T11:42:13;2.42;;;2.22;;
40623;SDS011;26325;48.594;11.650;2023-11-21T11:52:40;2.05;;;1.88;;
40623;SDS011;26325;48.594;11.650;2023-11-21T11:55:18;2.28;;;2.05;;
40623;SDS011;26325;48.594;11.650;2023-11-21T11:57:48;2.88;;;2.00;;
40623;SDS011;26325;48.594;11.650;2023-11-21T12:00:21;3.30;;;2.40;;
40623;SDS011;26325;48.594;11.650;2023-11-21T12:03:00;3.10;;;2.40;;
40623;SDS011;26325;48.594;11.650;2023-11-21T12:05:33;2.17;;;1.98;;
40623;SDS011;26325;48.594;11.650;2023-11-21T12:08:07;2.00;;;1.65;;
40623;SDS011;26325;48.594;11.650;2023-11-21T12:10:37;2.60;;;2.05;;
40623;SDS011;26325;48.594;11.650;2023-11-21T12:13:09;2.42;;;2.08;;
40623;SDS011;26325;48.594;11.650;2023-11-21T12:15:37;2.22;;;1.80;;
40623;SDS011;26325;48.594;11.650;2023-11-21T12:18:04;2.92;;;2.15;;
40623;SDS011;26325;48.594;11.650;2023-11-21T12:20:31;2.38;;;2.10;;
40623;SDS011;26325;48.594;11.650;2023-11-21T12:23:00;2.30;;;2.20;;
40623;SDS011;26325;48.594;11.650;2023-11-21T12:25:30;2.90;;;2.13;;
40623;SDS011;26325;48.594;11.650;2023-11-21T12:28:02;3.10;;;2.80;;
40623;SDS011;26325;48.594;11.650;2023-11-21T12:30:32;3.00;;;2.80;;
40623;SDS011;26325;48.594;11.650;2023-11-21T12:33:01;2.90;;;2.67;;
40623;SDS011;26325;48.594;11.650;2023-11-21T12:35:28;2.97;;;2.67;;
40623;SDS011;26325;48.594;11.650;2023-11-21T12:37:56;4.40;;;3.15;;
40623;SDS011;26325;48.594;11.650;2023-11-21T12:40:24;3.53;;;3.22;;
40623;SDS011;26325;48.594;11.650;2023-11-21T12:42:56;3.33;;;3.03;;
40623;SDS011;26325;48.594;11.650;2023-11-21T12:45:27;3.28;;;2.42;;
40623;SDS011;26325;48.594;11.650;2023-11-21T12:48:00;2.90;;;2.60;;
40623;SDS011;26325;48.594;11.650;2023-11-21T12:50:30;2.53;;;2.30;;
40623;SDS011;26325;48.594;11.650;2023-11-21T12:53:01;2.30;;;2.10;;
40623;SDS011;26325;48.594;11.650;2023-11-21T12:55:32;2.00;;;1.80;;
40623;SDS011;26325;48.594;11.650;2023-11-21T12:58:02;1.73;;;1.63;;
40623;SDS011;26325;48.594;11.650;2023-11-21T13:00:43;1.60;;;1.50;;
40623;SDS011;26325;48.594;11.650;2023-11-21T13:05:41;1.60;;;1.50;;
40623;SDS011;26325;48.594;11.650;2023-11-21T13:08:11;1.60;;;1.50;;
40623;SDS011;26325;48.594;11.650;2023-11-21T13:10:39;1.67;;;1.58;;
40623;SDS011;26325;48.594;11.650;2023-11-21T13:13:12;1.80;;;1.70;;
40623;SDS011;26325;48.594;11.650;2023-11-21T13:15:48;2.13;;;1.92;;
40623;SDS011;26325;48.594;11.650;2023-11-21T13:18:14;1.50;;;1.40;;
40623;SDS011;26325;48.594;11.650;2023-11-21T13:20:43;1.70;;;1.60;;
40623;SDS011;26325;48.594;11.650;2023-11-21T13:23:10;1.88;;;1.77;;
40623;SDS011;26325;48.594;11.650;2023-11-21T13:25:41;2.47;;;1.73;;
40623;SDS011;26325;48.594;11.650;2023-11-21T13:28:14;1.90;;;1.70;;
40623;SDS011;26325;48.594;11.650;2023-11-21T13:30:43;2.13;;;1.90;;
40623;SDS011;26325;48.594;11.650;2023-11-21T13:33:10;1.65;;;1.55;;
40623;SDS011;26325;48.594;11.650;2023-11-21T13:35:43;1.80;;;1.70;;
40623;SDS011;26325;48.594;11.650;2023-11-21T13:38:14;1.52;;;1.42;;
40623;SDS011;26325;48.594;11.650;2023-11-21T13:40:47;1.80;;;1.70;;
40623;SDS011;26325;48.594;11.650;2023-11-21T13:43:15;1.70;;;1.60;;
40623;SDS011;26325;48.594;11.650;2023-11-21T13:45:52;1.95;;;1.85;;
40623;SDS011;26325;48.594;11.650;2023-11-21T13:48:28;3.13;;;2.83;;
40623;SDS011;26325;48.594;11.650;2023-11-21T13:50:59;2.13;;;1.92;;
40623;SDS011;26325;48.594;11.650;2023-11-21T13:53:34;2.20;;;2.10;;
40623;SDS011;26325;48.594;11.650;2023-11-21T13:56:03;2.25;;;2.10;;
40623;SDS011;26325;48.594;11.650;2023-11-21T13:58:29;2.00;;;1.90;;
40623;SDS011;26325;48.594;11.650;2023-11-21T14:01:13;2.40;;;2.15;;
40623;SDS011;26325;48.594;11.650;2023-11-21T14:04:01;1.70;;;1.60;;
40623;SDS011;26325;48.594;11.650;2023-11-21T14:09:21;2.15;;;1.95;;
40623;SDS011;26325;48.594;11.650;2023-11-21T14:11:50;2.28;;;2.17;;
40623;SDS011;26325;48.594;11.650;2023-11-21T14:14:21;2.60;;;2.40;;
40623;SDS011;26325;48.594;11.650;2023-11-21T14:16:53;4.10;;;3.70;;
40623;SDS011;26325;48.594;11.650;2023-11-21T14:19:21;3.92;;;3.63;;
40623;SDS011;26325;48.594;11.650;2023-11-21T14:21:47;3.42;;;3.13;;
40623;SDS011;26325;48.594;11.650;2023-11-21T14:24:16;3.10;;;2.80;;
40623;SDS011;26325;48.594;11.650;2023-11-21T14:26:46;3.35;;;3.05;;
40623;SDS011;26325;48.594;11.650;2023-11-21T14:29:15;4.40;;;2.88;;
40623;SDS011;26325;48.594;11.650;2023-11-21T14:31:45;3.33;;;2.90;;
40623;SDS011;26325;48.594;11.650;2023-11-21T14:34:14;3.47;;;3.03;;
40623;SDS011;26325;48.594;11.650;2023-11-21T14:36:40;3.92;;;3.15;;
40623;SDS011;26325;48.594;11.650;2023-11-21T14:39:06;7.13;;;4.63;;
40623;SDS011;26325;48.594;11.650;2023-11-21T14:41:35;4.43;;;4.03;;
40623;SDS011;26325;48.594;11.650;2023-11-21T14:44:02;4.25;;;3.80;;
40623;SDS011;26325;48.594;11.650;2023-11-21T14:46:29;3.83;;;3.50;;
40623;SDS011;26325;48.594;11.650;2023-11-21T14:48:55;3.97;;;3.50;;
40623;SDS011;26325;48.594;11.650;2023-11-21T14:51:44;3.20;;;3.00;;
40623;SDS011;26325;48.594;11.650;2023-11-21T14:54:29;3.50;;;3.20;;
40623;SDS011;26325;48.594;11.650;2023-11-21T15:00:30;3.70;;;3.05;;
40623;SDS011;26325;48.594;11.650;2023-11-21T15:03:00;4.13;;;3.72;;
40623;SDS011;26325;48.594;11.650;2023-11-21T15:05:30;3.35;;;3.05;;
40623;SDS011;26325;48.594;11.650;2023-11-21T15:08:00;5.18;;;3.60;;
40623;SDS011;26325;48.594;11.650;2023-11-21T15:10:50;3.78;;;3.25;;
40623;SDS011;26325;48.594;11.650;2023-11-21T15:13:19;3.47;;;3.17;;
40623;SDS011;26325;48.594;11.650;2023-11-21T15:15:49;3.70;;;3.40;;
40623;SDS011;26325;48.594;11.650;2023-11-21T15:18:19;4.70;;;4.03;;
40623;SDS011;26325;48.594;11.650;2023-11-21T15:20:45;5.78;;;4.70;;
40623;SDS011;26325;48.594;11.650;2023-11-21T15:23:11;6.18;;;5.57;;
40623;SDS011;26325;48.594;11.650;2023-11-21T15:25:40;6.63;;;5.90;;
40623;SDS011;26325;48.594;11.650;2023-11-21T15:28:05;5.40;;;4.90;;
40623;SDS011;26325;48.594;11.650;2023-11-21T15:30:33;3.97;;;3.67;;
40623;SDS011;26325;48.594;11.650;2023-11-21T15:33:00;3.90;;;3.20;;